Time;durP1;ratioP1;P1;durP2;ratioP2;P2;SDS_P1;SDS_P2;PMS_P1;PMS_P2;Temp;Humidity;BMP_temperature;BMP_pressure;BME280_temperature;BME280_humidity;BME280_pressure;Samples;Min_cycle;Max_cycle;Signal;HPM_P1;HPM_P2
2022/10/07 00:00:36;;;;;;;9.77;1.50;;;;;;;22.19;100.00;98590.28;6205039;23;20016;-89
2022/10/07 00:03:02;;;;;;;8.85;1.20;;;;;;;22.56;100.00;98590.75;6207714;23;20024;-89
2022/10/07 00:05:27;;;;;;;15.02;1.92;;;;;;;22.40;100.00;98578.38;6208784;23;20040;-88
2022/10/07 00:07:54;;;;;;;10.35;1.67;;;;;;;21.47;100.00;98575.78;6209211;23;20434;-89
2022/10/07 00:10:19;;;;;;;10.90;1.50;;;;;;;21.18;100.00;98573.88;6207778;23;20004;-88
2022/10/07 00:12:45;;;;;;;12.85;1.90;;;;;;;21.21;100.00;98576.34;6209321;23;20008;-88
2022/10/07 00:15:10;;;;;;;10.20;1.42;;;;;;;21.16;100.00;98559.88;6206722;23;20016;-89
2022/10/07 00:17:36;;;;;;;9.07;1.30;;;;;;;22.32;100.00;98564.69;6208534;23;20082;-89
2022/10/07 00:20:05;;;;;;;7.15;1.35;;;;;;;21.82;100.00;98564.97;6206903;23;20107;-89
2022/10/07 00:22:30;;;;;;;10.10;1.80;;;;;;;22.56;100.00;98565.03;6207043;23;20450;-89
2022/10/07 00:24:56;;;;;;;12.18;1.58;;;;;;;22.79;100.00;98563.59;6206358;23;20014;-89
2022/10/07 00:27:21;;;;;;;9.18;1.20;;;;;;;22.16;100.00;98570.06;6209777;23;20009;-88
2022/10/07 00:29:47;;;;;;;10.88;1.73;;;;;;;21.53;100.00;98563.09;6208620;23;20382;-88
2022/10/07 00:32:12;;;;;;;6.13;1.40;;;;;;;21.57;100.00;98567.31;6206310;23;20252;-89
2022/10/07 00:34:38;;;;;;;10.95;1.60;;;;;;;21.97;100.00;98576.44;6207086;23;20089;-88
2022/10/07 00:37:04;;;;;;;6.95;1.23;;;;;;;21.86;100.00;98554.16;6208722;23;20016;-89
2022/10/07 00:39:29;;;;;;;8.93;1.45;;;;;;;22.37;100.00;98559.97;6207981;23;20014;-88
2022/10/07 00:41:55;;;;;;;12.15;1.45;;;;;;;23.95;100.00;98550.00;6205361;23;20440;-88
2022/10/07 00:44:41;;;;;;;10.73;1.40;;;;;;;22.50;100.00;98545.00;6209080;23;20544;-88
2022/10/07 00:47:32;;;;;;;7.53;1.30;;;;;;;22.35;100.00;98547.72;6207596;23;20016;-88
2022/10/07 00:50:16;;;;;;;9.57;1.40;;;;;;;20.39;100.00;98541.84;6169542;23;20008;-88
2022/10/07 00:52:49;;;;;;;10.73;1.40;;;;;;;21.60;100.00;98553.84;6202987;23;20084;-88
2022/10/07 00:55:22;;;;;;;12.40;1.65;;;;;;;21.74;100.00;98534.47;6206585;23;20079;-88
2022/10/07 00:57:49;;;;;;;10.10;2.33;;;;;;;19.22;100.00;98542.38;6208269;23;20088;-88
2022/10/07 01:00:15;;;;;;;9.20;1.75;;;;;;;21.69;100.00;98534.75;6207078;23;20004;-89
2022/10/07 01:02:41;;;;;;;13.52;2.08;;;;;;;21.53;100.00;98528.63;6207351;23;20087;-88
2022/10/07 01:05:08;;;;;;;11.80;2.00;;;;;;;21.62;100.00;98528.09;6205794;23;20035;-88
2022/10/07 01:07:35;;;;;;;11.40;1.73;;;;;;;23.74;100.00;98515.00;6206267;23;20012;-88
2022/10/07 01:10:01;;;;;;;12.98;1.90;;;;;;;23.60;100.00;98516.75;6204373;23;20059;-89
2022/10/07 01:12:36;;;;;;;10.90;2.10;;;;;;;19.92;100.00;98522.19;6205221;23;20792;-88
2022/10/07 01:15:27;;;;;;;8.07;1.30;;;;;;;21.43;100.00;98504.38;6205345;23;20421;-88
2022/10/07 01:18:10;;;;;;;9.48;1.60;;;;;;;22.86;100.00;98505.56;6208096;23;20008;-88
2022/10/07 01:20:35;;;;;;;12.60;1.67;;;;;;;20.79;100.00;98500.00;6205390;23;20016;-88
2022/10/07 01:23:19;;;;;;;9.55;1.90;;;;;;;21.20;100.00;98495.13;6207610;23;20307;-88
2022/10/07 01:25:50;;;;;;;10.15;1.52;;;;;;;20.65;100.00;98494.53;6206649;23;20481;-88
2022/10/07 01:28:23;;;;;;;11.93;1.80;;;;;;;18.73;100.00;98496.19;6207238;23;20013;-88
2022/10/07 01:30:57;;;;;;;10.32;1.65;;;;;;;20.86;100.00;98500.47;6207119;23;20390;-88
2022/10/07 01:33:27;;;;;;;11.68;1.90;;;;;;;21.78;100.00;98489.09;6205452;23;20008;-88
2022/10/07 01:35:56;;;;;;;10.35;1.67;;;;;;;22.48;100.00;98471.63;6205939;23;20022;-88
2022/10/07 01:38:25;;;;;;;8.07;1.35;;;;;;;20.81;100.00;98478.69;6205816;23;20117;-88
2022/10/07 01:41:07;;;;;;;8.57;1.83;;;;;;;22.42;100.00;98472.88;6207095;23;20012;-88
2022/10/07 01:43:33;;;;;;;10.60;1.48;;;;;;;20.18;100.00;98471.47;6204096;23;20016;-88
2022/10/07 01:45:59;;;;;;;9.52;1.80;;;;;;;21.36;100.00;98450.81;6206360;23;20004;-88
2022/10/07 01:48:24;;;;;;;10.02;1.67;;;;;;;20.90;100.00;98456.97;6205930;23;20004;-89
2022/10/07 01:50:50;;;;;;;10.75;1.65;;;;;;;20.41;100.00;98449.91;6208426;23;20011;-87
2022/10/07 01:53:37;;;;;;;15.15;1.90;;;;;;;20.07;100.00;98441.13;6204490;23;20035;-90
2022/10/07 01:56:02;;;;;;;10.18;2.03;;;;;;;21.60;100.00;98455.66;6170610;23;20395;-88
2022/10/07 01:58:36;;;;;;;7.88;1.20;;;;;;;21.23;100.00;98448.03;6202382;23;20021;-88
2022/10/07 02:01:14;;;;;;;11.40;1.50;;;;;;;21.30;100.00;98430.81;6209362;22;20028;-94
2022/10/07 02:04:04;;;;;;;11.45;1.75;;;;;;;21.03;100.00;98425.34;6240255;22;20672;-96
2022/10/07 02:06:57;;;;;;;7.28;1.25;;;;;;;21.52;100.00;98426.03;6245895;22;20004;-92
2022/10/07 02:09:39;;;;;;;5.80;1.20;;;;;;;19.77;100.00;98417.94;6247737;22;19999;-94
2022/10/07 02:12:52;;;;;;;9.05;1.75;;;;;;;18.92;100.00;98410.78;6247432;22;19999;-95
2022/10/07 02:15:32;;;;;;;9.13;1.30;;;;;;;21.84;100.00;98402.94;6220581;22;20062;-95
2022/10/07 02:18:04;;;;;;;7.28;1.30;;;;;;;22.50;100.00;98385.56;6274546;22;20225;-94
2022/10/07 02:20:33;;;;;;;10.40;1.77;;;;;;;20.16;100.00;98388.63;6247671;22;20042;-95
2022/10/07 02:23:04;;;;;;;11.85;1.48;;;;;;;20.36;100.00;98382.22;6247721;22;20011;-94
2022/10/07 02:25:36;;;;;;;11.00;1.75;;;;;;;20.88;100.00;98391.75;6246167;22;20115;-93
2022/10/07 02:28:08;;;;;;;8.90;1.50;;;;;;;20.77;100.00;98376.44;6245700;22;20057;-94
2022/10/07 02:30:35;;;;;;;9.50;1.58;;;;;;;21.29;100.00;98361.94;6247050;22;20006;-94
2022/10/07 02:33:04;;;;;;;7.50;1.70;;;;;;;21.30;100.00;98355.72;6247259;22;20003;-93
2022/10/07 02:35:47;;;;;;;9.70;1.30;;;;;;;21.49;100.00;98361.63;6246751;22;20445;-93
2022/10/07 02:38:16;;;;;;;9.65;1.27;;;;;;;23.03;100.00;98366.19;6246894;22;20267;-93
2022/10/07 02:41:05;;;;;;;10.52;1.65;;;;;;;20.57;100.00;98365.16;6245808;22;20061;-93
2022/10/07 02:43:40;;;;;;;8.05;1.60;;;;;;;20.78;100.00;98360.47;6247495;22;20008;-93
2022/10/07 02:46:21;;;;;;;9.80;1.30;;;;;;;21.86;100.00;98336.47;6245868;22;20016;-94
2022/10/07 02:49:04;;;;;;;9.38;1.80;;;;;;;20.93;100.00;98345.47;6247445;22;20004;-94
2022/10/07 02:51:40;;;;;;;;;;;;;;;21.90;100.00;98343.28;6247266;22;20125;-93
2022/10/07 02:54:05;;;;;;;8.30;1.30;;;;;;;21.28;100.00;98325.75;6244738;22;19934;-93
2022/10/07 02:56:40;;;;;;;6.35;1.27;;;;;;;21.51;100.00;98342.09;6247115;22;20160;-95
2022/10/07 02:59:09;;;;;;;10.30;1.70;;;;;;;21.21;100.00;98332.38;6245361;22;20061;-94
2022/10/07 03:01:47;;;;;;;8.38;1.73;;;;;;;21.06;100.00;98320.91;6246459;22;20430;-93
2022/10/07 03:04:23;;;;;;;10.95;1.35;;;;;;;20.55;100.00;98323.78;6247314;22;20010;-95
2022/10/07 03:06:54;;;;;;;8.65;1.73;;;;;;;21.36;100.00;98330.63;6273881;22;20016;-94
2022/10/07 03:09:34;;;;;;;11.35;1.58;;;;;;;21.86;100.00;98312.56;6247292;22;20027;-93
2022/10/07 03:12:07;;;;;;;10.80;1.60;;;;;;;19.12;100.00;98314.63;6245124;22;20465;-94
2022/10/07 03:14:36;;;;;;;;;;;;;;;18.98;100.00;98327.69;6247918;22;20000;-95
2022/10/07 03:17:02;;;;;;;8.20;1.75;;;;;;;21.24;100.00;98298.59;6246981;22;19907;-94
2022/10/07 03:19:27;;;;;;;9.32;1.23;;;;;;;21.12;100.00;98294.00;6246833;22;20034;-94
2022/10/07 03:21:56;;;;;;;12.88;1.85;;;;;;;21.62;100.00;98295.41;6247538;22;20011;-94
2022/10/07 03:24:29;;;;;;;9.55;1.90;;;;;;;21.01;100.00;98299.94;6246257;22;20008;-94
2022/10/07 03:26:56;;;;;;;10.18;1.50;;;;;;;21.33;100.00;98293.66;6246138;22;20464;-94
2022/10/07 03:29:33;;;;;;;10.30;1.75;;;;;;;21.32;100.00;98279.53;6274047;22;20021;-95
2022/10/07 03:32:02;;;;;;;10.32;1.70;;;;;;;20.64;100.00;98275.59;6248286;22;20011;-94
2022/10/07 03:34:36;;;;;;;12.23;1.45;;;;;;;19.75;100.00;98279.59;6249289;22;20252;-95
2022/10/07 03:37:01;;;;;;;7.88;2.25;;;;;;;21.23;100.00;98290.72;6249303;22;20011;-93
2022/10/07 03:39:27;;;;;;;17.75;2.08;;;;;;;20.43;100.00;98270.59;6248335;22;20515;-95
2022/10/07 03:41:52;;;;;;;11.88;1.95;;;;;;;19.85;100.00;98263.25;6247743;22;20384;-95
2022/10/07 03:44:18;;;;;;;13.27;1.80;;;;;;;20.36;100.00;98271.00;6275985;22;20015;-94
2022/10/07 03:46:46;;;;;;;12.50;1.88;;;;;;;20.37;100.00;98276.22;6247306;22;20042;-93
2022/10/07 03:49:17;;;;;;;12.60;1.55;;;;;;;19.89;100.00;98273.59;6248316;22;20003;-94
2022/10/07 03:51:43;;;;;;;12.20;1.83;;;;;;;20.70;100.00;98282.34;6246058;22;20011;-93
2022/10/07 03:54:11;;;;;;;13.52;1.55;;;;;;;20.34;100.00;98270.25;6246887;22;20007;-95
2022/10/07 03:56:36;;;;;;;9.25;1.60;;;;;;;20.06;100.00;98285.03;6247918;22;20000;-93
2022/10/07 03:59:02;;;;;;;6.72;1.38;;;;;;;19.91;100.00;98289.38;6248268;22;20014;-93
2022/10/07 04:01:30;;;;;;;8.50;1.40;;;;;;;21.53;100.00;98281.84;6248592;22;20101;-94
2022/10/07 04:03:57;;;;;;;16.70;1.80;;;;;;;19.40;100.00;98284.13;6247175;22;20061;-94
2022/10/07 04:06:22;;;;;;;13.38;1.75;;;;;;;19.44;100.00;98280.38;6248361;22;20003;-94
2022/10/07 04:08:55;;;;;;;12.85;2.15;;;;;;;19.36;100.00;98282.56;6248508;22;20003;-94
2022/10/07 04:11:31;;;;;;;12.07;1.65;;;;;;;20.09;100.00;98268.97;6247760;22;19995;-93
2022/10/07 04:14:00;;;;;;;9.95;1.30;;;;;;;19.90;100.00;98277.06;6248729;22;20003;-93
2022/10/07 04:16:26;;;;;;;11.63;1.38;;;;;;;20.50;100.00;98276.38;6248169;22;20065;-93
2022/10/07 04:19:07;;;;;;;13.10;1.63;;;;;;;20.80;100.00;98263.16;6247654;22;20023;-93
2022/10/07 04:21:35;;;;;;;9.55;1.63;;;;;;;21.53;100.00;98250.03;6247000;22;20010;-94
2022/10/07 04:24:01;;;;;;;8.75;1.33;;;;;;;20.55;100.00;98257.56;6247912;22;20012;-94
2022/10/07 04:26:29;;;;;;;10.30;1.73;;;;;;;20.63;100.00;98244.72;6248291;22;20311;-95
2022/10/07 04:29:03;;;;;;;10.40;1.63;;;;;;;20.58;100.00;98247.63;6248058;22;19999;-94
2022/10/07 04:31:28;;;;;;;8.43;1.70;;;;;;;20.14;100.00;98221.94;6247713;22;20061;-94
2022/10/07 04:33:54;;;;;;;7.25;1.70;;;;;;;21.84;100.00;98233.03;6248364;22;20015;-94
2022/10/07 04:36:21;;;;;;;10.48;1.90;;;;;;;20.04;100.00;98228.66;6248403;22;20086;-93
2022/10/07 04:38:49;;;;;;;10.90;1.60;;;;;;;21.10;100.00;98222.53;6248444;22;20011;-94
2022/10/07 04:41:15;;;;;;;8.98;1.30;;;;;;;20.54;100.00;98218.75;6247527;22;20035;-94
2022/10/07 04:43:40;;;;;;;10.02;1.70;;;;;;;20.03;100.00;98230.47;6249133;22;20011;-94
2022/10/07 04:46:09;;;;;;;10.82;1.60;;;;;;;19.38;100.00;98239.25;6275241;22;20342;-94
2022/10/07 04:48:35;;;;;;;9.73;1.80;;;;;;;20.09;100.00;98214.22;6247997;22;20424;-94
2022/10/07 04:51:04;;;;;;;9.48;1.30;;;;;;;20.05;100.00;98238.31;6246289;22;20008;-93
2022/10/07 04:53:30;;;;;;;8.20;1.42;;;;;;;20.90;100.00;98230.81;6247660;22;20034;-93
2022/10/07 04:55:56;;;;;;;13.75;1.80;;;;;;;20.46;100.00;98217.41;6247891;22;20531;-94
2022/10/07 04:58:29;;;;;;;11.55;2.08;;;;;;;21.50;100.00;98219.19;6273647;22;20003;-94
2022/10/07 05:00:56;;;;;;;9.00;1.40;;;;;;;20.46;100.00;98211.28;6274299;22;20008;-96
2022/10/07 05:03:27;;;;;;;8.20;1.60;;;;;;;20.63;100.00;98215.59;6274305;22;20039;-93
2022/10/07 05:06:02;;;;;;;6.07;1.20;;;;;;;19.41;100.00;98212.63;6245679;22;20097;-93
2022/10/07 05:08:35;;;;;;;10.10;1.55;;;;;;;19.58;100.00;98210.88;6246627;22;20041;-92
2022/10/07 05:11:06;;;;;;;10.63;1.50;;;;;;;18.36;100.00;98182.84;6246886;22;20050;-95
2022/10/07 05:13:33;;;;;;;12.77;1.80;;;;;;;19.22;100.00;98191.63;6274461;22;20030;-93
2022/10/07 05:16:10;;;;;;;;;;;;;;;;;;;;;
2022/10/07 05:18:37;;;;;;;8.85;1.80;;;;;;;19.74;100.00;98185.28;6271699;22;20091;-94
2022/10/07 05:21:07;;;;;;;8.80;1.27;;;;;;;20.03;100.00;98182.00;6247718;22;20021;-94
2022/10/07 05:23:35;;;;;;;10.00;1.55;;;;;;;19.46;100.00;98159.53;6247076;22;20007;-94
2022/10/07 05:26:06;;;;;;;10.05;1.30;;;;;;;18.56;100.00;98179.19;6245385;22;20023;-94
2022/10/07 05:28:33;;;;;;;14.70;1.88;;;;;;;20.03;100.00;98169.59;6247403;22;20011;-93
2022/10/07 05:31:05;;;;;;;12.20;1.42;;;;;;;20.01;100.00;98145.00;6246994;22;20098;-94
2022/10/07 05:33:31;;;;;;;11.07;1.55;;;;;;;20.03;100.00;98151.06;6246686;22;20023;-94
2022/10/07 05:35:58;;;;;;;10.77;1.50;;;;;;;20.26;100.00;98136.50;6247077;22;20014;-95
2022/10/07 05:38:23;;;;;;;13.02;1.63;;;;;;;20.33;100.00;98171.41;6247873;22;20460;-94
2022/10/07 05:40:57;;;;;;;12.45;1.20;;;;;;;20.74;100.00;98152.22;6247089;22;20000;-93
2022/10/07 05:43:24;;;;;;;9.25;1.50;;;;;;;20.00;100.00;98163.59;6246702;22;20016;-94
2022/10/07 05:46:02;;;;;;;10.82;2.03;;;;;;;19.07;100.00;98155.47;6247597;22;20031;-94
2022/10/07 05:48:28;;;;;;;12.85;1.77;;;;;;;19.30;100.00;98153.34;6246820;22;20004;-93
2022/10/07 05:50:56;;;;;;;10.32;1.50;;;;;;;20.85;100.00;98156.91;6246809;22;20003;-95
2022/10/07 05:53:22;;;;;;;10.48;1.98;;;;;;;20.31;100.00;98133.56;6246784;22;20061;-94
2022/10/07 05:55:50;;;;;;;8.70;1.92;;;;;;;20.25;100.00;98141.88;6245376;22;20019;-93
2022/10/07 05:58:23;;;;;;;10.27;1.75;;;;;;;19.28;100.00;98149.00;6245914;22;20039;-94
2022/10/07 06:00:57;;;;;;;6.43;1.20;;;;;;;18.76;100.00;98142.03;6245543;22;20079;-93
2022/10/07 06:03:33;;;;;;;10.68;1.38;;;;;;;19.19;100.00;98136.31;6247406;22;20123;-93
2022/10/07 06:06:01;;;;;;;11.55;1.40;;;;;;;19.83;100.00;98148.69;6272447;22;20515;-94
2022/10/07 06:08:27;;;;;;;9.18;1.45;;;;;;;18.82;100.00;98151.44;6246405;22;20004;-94
2022/10/07 06:13:57;;;;;;;;;;;;;;;19.99;100.00;98131.00;6272044;22;20073;-93
2022/10/07 06:16:23;;;;;;;10.48;1.70;;;;;;;19.18;100.00;98142.50;6244613;22;20564;-92
2022/10/07 06:19:21;;;;;;;9.25;1.42;;;;;;;20.05;100.00;98127.16;6245468;22;20050;-94
2022/10/07 06:21:58;;;;;;;11.18;1.90;;;;;;;20.10;100.00;98138.34;6242622;22;20010;-96
2022/10/07 06:24:24;;;;;;;10.50;1.50;;;;;;;20.50;100.00;98145.72;6245737;22;20513;-95
2022/10/07 06:30:40;;;;;;;12.25;1.50;;;;;;;20.70;100.00;98139.28;6275348;22;20952;-95
2022/10/07 06:33:06;;;;;;;12.27;1.60;;;;;;;19.41;100.00;98128.03;6205644;23;20072;-87
2022/10/07 06:35:32;;;;;;;8.35;1.70;;;;;;;19.67;100.00;98122.25;6177880;23;20103;-88
2022/10/07 06:37:57;;;;;;;9.55;1.40;;;;;;;18.66;100.00;98124.94;6179930;23;20016;-87
2022/10/07 06:40:22;;;;;;;10.70;1.48;;;;;;;19.90;100.00;98105.94;6206286;23;20067;-88
2022/10/07 06:42:48;;;;;;;11.43;1.58;;;;;;;18.74;100.00;98121.94;6206263;23;20020;-88
2022/10/07 06:45:13;;;;;;;9.38;1.48;;;;;;;19.06;100.00;98112.31;6178506;23;20012;-88
2022/10/07 06:47:39;;;;;;;7.63;1.70;;;;;;;19.56;100.00;98125.47;6179261;23;20428;-88
2022/10/07 06:50:05;;;;;;;10.40;1.40;;;;;;;19.09;100.00;98121.84;6205539;23;20043;-90
2022/10/07 06:52:31;;;;;;;7.70;1.42;;;;;;;18.00;100.00;98123.91;6181903;23;20008;-89
2022/10/07 06:54:57;;;;;;;9.18;1.50;;;;;;;19.84;100.00;98118.66;6179588;23;20614;-91
2022/10/07 06:57:25;;;;;;;16.35;2.00;;;;;;;17.85;100.00;98121.97;6208279;23;20028;-90
2022/10/07 06:59:53;;;;;;;14.13;1.48;;;;;;;19.80;100.00;98125.06;6207546;23;20015;-90
2022/10/07 07:02:19;;;;;;;8.95;1.60;;;;;;;21.25;100.00;98129.69;6207693;23;20112;-91
2022/10/07 07:04:44;;;;;;;12.00;1.80;;;;;;;21.66;100.00;98118.28;6182825;23;20039;-90
2022/10/07 07:07:10;;;;;;;12.60;1.70;;;;;;;21.62;100.00;98122.94;6210641;23;20012;-90
2022/10/07 07:09:36;;;;;;;8.23;1.73;;;;;;;20.53;100.00;98111.09;6183883;23;20020;-90
2022/10/07 07:12:01;;;;;;;7.90;1.63;;;;;;;19.73;100.00;98098.91;6210015;23;20019;-90
2022/10/07 07:14:27;;;;;;;10.77;1.88;;;;;;;19.84;100.00;98100.13;6182557;23;20009;-89
2022/10/07 07:16:53;;;;;;;14.30;2.10;;;;;;;19.78;100.00;98110.09;6181955;23;20059;-91
2022/10/07 07:19:18;;;;;;;9.63;1.70;;;;;;;19.05;100.00;98128.25;6181416;23;20358;-89
2022/10/07 07:21:44;;;;;;;14.50;1.95;;;;;;;18.96;100.00;98111.09;6207029;23;20027;-88
2022/10/07 07:24:10;;;;;;;10.15;1.48;;;;;;;18.92;100.00;98104.28;6204038;23;20014;-88
2022/10/07 07:26:38;;;;;;;8.93;1.63;;;;;;;19.09;100.00;98106.00;6179810;23;20777;-88
2022/10/07 07:29:05;;;;;;;14.18;1.75;;;;;;;20.52;100.00;98098.81;6181740;23;20008;-89
2022/10/07 07:31:33;;;;;;;8.02;1.50;;;;;;;21.48;100.00;98089.28;6180491;23;20469;-88
2022/10/07 07:34:01;;;;;;;11.25;1.45;;;;;;;20.64;100.00;98090.13;6181790;23;20028;-89
2022/10/07 07:36:29;;;;;;;11.35;1.80;;;;;;;20.03;100.00;98092.84;6207965;23;20008;-88
2022/10/07 07:38:57;;;;;;;10.40;1.73;;;;;;;20.36;100.00;98089.16;6203767;23;20040;-89
2022/10/07 07:41:28;;;;;;;14.07;1.98;;;;;;;22.10;100.00;98076.47;6181832;23;20008;-89
2022/10/07 07:43:56;;;;;;;11.15;1.80;;;;;;;21.46;100.00;98087.69;6208150;23;20012;-90
2022/10/07 07:46:26;;;;;;;14.30;1.60;;;;;;;21.84;100.00;98081.72;6179293;23;20028;-89
2022/10/07 07:48:53;;;;;;;9.13;1.60;;;;;;;20.45;100.00;98075.31;6181198;23;20078;-89
2022/10/07 07:51:19;;;;;;;8.02;1.48;;;;;;;21.78;100.00;98069.72;6206890;23;20088;-90
2022/10/07 07:53:48;;;;;;;11.70;1.50;;;;;;;21.91;100.00;98085.69;6180499;23;20036;-89
2022/10/07 07:56:15;;;;;;;7.60;1.23;;;;;;;21.38;100.00;98061.69;6206443;23;20017;-89
2022/10/07 07:58:41;;;;;;;7.43;1.25;;;;;;;21.23;100.00;98068.81;6180567;23;20027;-89
2022/10/07 08:01:17;;;;;;;10.10;1.50;;;;;;;22.34;100.00;98074.00;6182363;23;20009;-89
2022/10/07 08:03:45;;;;;;;10.82;1.67;;;;;;;21.54;100.00;98063.34;6207322;23;20011;-89
2022/10/07 08:06:12;;;;;;;9.82;1.40;;;;;;;21.78;100.00;98071.50;6181872;23;20036;-89
2022/10/07 08:08:41;;;;;;;10.63;2.22;;;;;;;20.58;100.00;98066.63;6205854;23;20009;-87
2022/10/07 08:11:18;;;;;;;6.35;1.13;;;;;;;19.89;100.00;98066.34;6180184;23;20001;-89
2022/10/07 08:13:47;;;;;;;12.27;1.92;;;;;;;20.13;100.00;98056.94;6180369;23;20450;-90
2022/10/07 08:16:21;;;;;;;6.97;1.40;;;;;;;20.69;100.00;98068.66;6208125;23;20001;-89
2022/10/07 08:18:49;;;;;;;7.15;1.33;;;;;;;21.90;100.00;98054.75;6181088;23;20008;-89
2022/10/07 08:21:17;;;;;;;9.50;1.65;;;;;;;20.28;100.00;98064.91;6178269;23;20015;-87
2022/10/07 08:23:43;;;;;;;9.50;1.40;;;;;;;20.53;100.00;98056.34;6177916;23;20046;-90
2022/10/07 08:26:09;;;;;;;9.68;1.77;;;;;;;21.90;100.00;98062.72;6206426;23;20035;-89
2022/10/07 08:28:39;;;;;;;7.85;1.60;;;;;;;19.81;100.00;98047.41;6180536;23;20024;-88
2022/10/07 08:31:13;;;;;;;9.95;1.80;;;;;;;20.96;100.00;98060.81;6208626;23;20024;-89
2022/10/07 08:33:43;;;;;;;10.45;1.50;;;;;;;20.66;100.00;98064.38;6204470;23;20032;-89
2022/10/07 08:36:12;;;;;;;11.18;1.50;;;;;;;20.42;100.00;98046.38;6204053;23;20310;-89
2022/10/07 08:38:39;;;;;;;7.00;1.40;;;;;;;21.72;100.00;98042.72;6178355;23;20084;-89
2022/10/07 08:41:14;;;;;;;8.98;1.20;;;;;;;21.46;100.00;98053.19;6179334;23;20015;-89
2022/10/07 08:43:44;;;;;;;12.02;1.55;;;;;;;21.56;100.00;98040.22;6179499;23;20417;-89
2022/10/07 08:46:15;;;;;;;11.63;2.13;;;;;;;21.20;100.00;98025.75;6206506;23;20542;-89
2022/10/07 08:49:03;;;;;;;11.60;1.40;;;;;;;21.54;100.00;98045.63;6180679;23;20027;-89
2022/10/07 08:51:40;;;;;;;12.13;1.63;;;;;;;22.71;100.00;98063.47;6179668;23;20008;-89
2022/10/07 08:54:12;;;;;;;11.45;2.00;;;;;;;20.81;100.00;98038.75;6178134;23;20017;-90
2022/10/07 08:56:47;;;;;;;8.65;1.45;;;;;;;21.74;100.00;98035.50;6178329;23;20446;-89
2022/10/07 08:59:32;;;;;;;12.77;1.92;;;;;;;21.08;100.00;98035.31;6179665;23;20009;-90
2022/10/07 09:02:45;;;;;;;10.35;1.80;;;;;;;22.46;100.00;98045.72;6205758;23;20610;-89
2022/10/07 09:05:21;;;;;;;8.43;2.00;;;;;;;21.55;100.00;98036.72;6146226;23;20036;-90
2022/10/07 09:07:52;;;;;;;9.82;1.73;;;;;;;22.08;100.00;98038.56;6180564;23;20011;-89
2022/10/07 09:10:36;;;;;;;11.15;1.60;;;;;;;21.26;100.00;98052.69;6180214;23;20497;-88
2022/10/07 09:13:02;;;;;;;;;;;;;;;21.54;100.00;98052.75;6181526;23;20320;-89
2022/10/07 09:15:46;;;;;;;10.18;1.63;;;;;;;22.24;100.00;98043.66;6180813;23;19915;-88
2022/10/07 09:18:30;;;;;;;9.35;1.50;;;;;;;21.02;100.00;98049.81;6181200;23;20022;-89
2022/10/07 09:20:56;;;;;;;10.15;1.55;;;;;;;22.73;100.00;98037.66;6180224;23;20129;-89
2022/10/07 09:23:27;;;;;;;8.82;1.40;;;;;;;22.52;100.00;98042.66;6179712;23;20009;-90
2022/10/07 09:25:53;;;;;;;10.68;1.63;;;;;;;22.50;100.00;98040.13;6202569;23;20013;-89
2022/10/07 09:28:24;;;;;;;9.38;1.42;;;;;;;22.23;100.00;98036.69;6203359;23;20035;-89
2022/10/07 09:30:50;;;;;;;8.57;1.75;;;;;;;21.56;100.00;98042.88;6179351;23;20025;-89
2022/10/07 09:33:21;;;;;;;13.27;1.45;;;;;;;22.62;100.00;98021.63;6178041;23;20135;-89
2022/10/07 09:36:03;;;;;;;8.80;1.50;;;;;;;23.42;100.00;98025.69;6207314;23;20024;-89
2022/10/07 09:38:37;;;;;;;12.95;1.73;;;;;;;22.35;100.00;98016.41;6203777;23;20020;-89
2022/10/07 09:41:23;;;;;;;8.50;1.50;;;;;;;24.78;100.00;98029.59;6203875;23;20014;-89
2022/10/07 09:44:02;;;;;;;9.70;1.50;;;;;;;22.45;100.00;98020.09;6202623;23;20530;-88
2022/10/07 09:46:58;;;;;;;10.35;1.50;;;;;;;24.02;100.00;98016.75;6199505;23;20020;-89
2022/10/07 09:49:27;;;;;;;7.18;1.35;;;;;;;24.15;100.00;98013.16;6177733;23;20059;-89
2022/10/07 09:52:05;;;;;;;7.30;1.17;;;;;;;22.87;100.00;98003.91;6207674;23;20020;-88
2022/10/07 09:54:33;;;;;;;8.65;2.25;;;;;;;24.03;100.00;98001.63;6181325;23;20009;-89
2022/10/07 09:57:04;;;;;;;9.98;1.70;;;;;;;25.26;100.00;97984.91;6206078;23;20434;-89
2022/10/07 09:59:39;;;;;;;8.80;1.15;;;;;;;23.75;100.00;97994.88;6180617;23;20008;-90
2022/10/07 10:02:14;;;;;;;6.63;1.30;;;;;;;22.85;100.00;97988.06;6182213;23;20084;-89
2022/10/07 10:04:55;;;;;;;8.10;1.25;;;;;;;24.34;100.00;97985.94;6182147;23;20015;-90
2022/10/07 10:07:31;;;;;;;11.25;1.65;;;;;;;24.42;100.00;97974.69;6182436;23;20013;-90
2022/10/07 10:10:05;;;;;;;10.60;1.30;;;;;;;23.32;100.00;97978.47;6206622;23;20182;-90
2022/10/07 10:12:46;;;;;;;8.75;1.50;;;;;;;24.14;100.00;97987.47;6204394;23;20013;-91
2022/10/07 10:15:38;;;;;;;8.07;1.30;;;;;;;23.04;100.00;97979.59;6207034;23;20871;-89
2022/10/07 10:18:39;;;;;;;8.13;1.20;;;;;;;22.44;100.00;97974.09;6203674;23;20012;-88
2022/10/07 10:21:39;;;;;;;4.22;1.05;;;;;;;23.18;100.00;97978.63;6207694;23;20009;-88
2022/10/07 10:24:10;;;;;;;11.70;1.63;;;;;;;22.66;100.00;97983.22;6178553;23;20039;-88
2022/10/07 10:27:22;;;;;;;9.82;1.80;;;;;;;22.84;100.00;97984.56;6205530;23;20105;-88
2022/10/07 10:29:55;;;;;;;7.47;1.63;;;;;;;22.04;100.00;97968.88;6156493;23;20017;-88
2022/10/07 10:32:40;;;;;;;;;;;;;;;24.09;100.00;97971.00;6208028;23;20043;-88
2022/10/07 10:35:24;;;;;;;9.50;1.45;;;;;;;22.98;100.00;97969.44;6179504;23;20288;-88
2022/10/07 10:38:11;;;;;;;9.63;1.50;;;;;;;23.91;100.00;97965.28;6178909;23;20430;-88
2022/10/07 10:40:41;;;;;;;8.60;1.52;;;;;;;24.35;100.00;97963.66;6179891;23;20047;-89
2022/10/07 10:43:09;;;;;;;9.45;1.50;;;;;;;24.40;100.00;97964.13;6180596;23;20009;-89
2022/10/07 10:45:50;;;;;;;10.88;1.35;;;;;;;23.67;100.00;97956.38;6206962;23;20111;-90
2022/10/07 10:48:42;;;;;;;9.93;1.38;;;;;;;23.55;100.00;97956.41;6179360;23;20052;-89
2022/10/07 10:51:30;;;;;;;7.20;1.30;;;;;;;22.93;100.00;97955.63;6178607;23;20278;-89
2022/10/07 10:54:18;;;;;;;6.07;1.00;;;;;;;21.98;100.00;97969.31;6175134;23;20115;-88
2022/10/07 10:56:49;;;;;;;6.35;1.00;;;;;;;22.27;100.00;97958.47;6203368;23;20008;-89
2022/10/07 10:59:47;;;;;;;8.02;1.60;;;;;;;22.48;100.00;97972.94;6205657;23;20040;-89
2022/10/07 11:02:33;;;;;;;8.98;1.30;;;;;;;22.82;100.00;97973.16;6099023;23;20016;-88
2022/10/07 11:05:37;;;;;;;7.50;1.63;;;;;;;22.92;100.00;97973.38;6204944;23;20012;-89
2022/10/07 11:08:23;;;;;;;7.70;1.10;;;;;;;22.02;100.00;97978.75;6056260;23;20090;-88
2022/10/07 11:11:00;;;;;;;7.97;1.30;;;;;;;22.24;100.00;97975.47;6032286;23;20023;-88
2022/10/07 11:13:45;;;;;;;6.28;1.30;;;;;;;22.08;100.00;97977.50;6031960;23;20010;-88
2022/10/07 11:16:23;;;;;;;5.35;1.10;;;;;;;23.04;100.00;97973.44;6023752;23;20015;-88
2022/10/07 11:18:55;;;;;;;7.45;1.10;;;;;;;21.72;100.00;97969.25;6034092;23;20015;-88
2022/10/07 11:21:41;;;;;;;7.53;1.20;;;;;;;22.84;100.00;101250.56;6033684;23;20018;-89
2022/10/07 11:24:25;;;;;;;8.50;1.35;;;;;;;22.17;100.00;100506.75;6056111;23;20114;-89
2022/10/07 11:27:26;;;;;;;12.20;1.85;;;;;;;21.33;100.00;99323.78;6056410;23;20014;-88
2022/10/07 11:29:59;;;;;;;8.38;1.50;;;;;;;22.62;100.00;98989.94;6028293;23;20021;-89
2022/10/07 11:32:30;;;;;;;;;;;;;;;22.66;100.00;98594.56;6057350;23;20508;-88
2022/10/07 11:35:22;;;;;;;8.98;1.30;;;;;;;21.53;100.00;98549.84;6032494;23;20347;-89
2022/10/07 11:37:53;;;;;;;8.23;1.35;;;;;;;21.27;100.00;98549.50;6032250;23;20047;-89
2022/10/07 11:40:21;;;;;;;7.13;1.50;;;;;;;22.35;100.00;98518.50;6056663;23;20027;-88
2022/10/07 11:42:51;;;;;;;7.63;1.45;;;;;;;21.04;100.00;98525.13;6150219;23;20016;-89
2022/10/07 11:45:22;;;;;;;9.50;1.70;;;;;;;19.36;100.00;98568.16;6174179;23;20044;-89
2022/10/07 11:48:04;;;;;;;9.35;1.70;;;;;;;42.60;100.00;102979.38;6150911;23;20041;-89
2022/10/07 11:50:37;;;;;;;9.30;1.40;;;;;;;26.91;100.00;101371.22;6175009;23;20119;-89
2022/10/07 11:53:08;;;;;;;;;;;;;;;25.58;100.00;99386.06;6152810;23;20418;-89
2022/10/07 11:55:33;;;;;;;6.43;1.17;;;;;;;25.20;100.00;98342.00;6151197;23;19915;-89